createdAt,value
2023-05-21T00:03:02.074Z,15.88
2023-05-21T00:07:04.173Z,16.87
2023-05-21T00:11:06.640Z,12.93
2023-05-21T00:15:08.933Z,14.85
2023-05-21T00:19:10.702Z,16.58
2023-05-21T00:23:12.748Z,14.73
2023-05-21T00:27:14.513Z,15.55
2023-05-21T00:31:17.156Z,17.55
2023-05-21T00:35:19.515Z,16.50
2023-05-21T00:39:21.383Z,15.98
2023-05-21T00:43:26.178Z,15.88
2023-05-21T00:47:29.690Z,16.75
2023-05-21T00:51:31.594Z,15.65
2023-05-21T00:55:33.878Z,17.15
2023-05-21T00:59:35.787Z,16.60
2023-05-21T01:03:38.503Z,13.65
2023-05-21T01:07:41.777Z,13.73
2023-05-21T01:11:46.676Z,13.95
2023-05-21T01:15:50.040Z,15.13
2023-05-21T01:19:52.766Z,14.23
2023-05-21T01:23:54.574Z,14.55
2023-05-21T01:27:56.317Z,16.12
2023-05-21T01:32:34.150Z,14.68
2023-05-21T01:36:43.539Z,16.90
2023-05-21T01:40:54.385Z,16.12
2023-05-21T01:44:59.409Z,18.58
2023-05-21T01:49:01.869Z,14.32
2023-05-21T01:53:12.962Z,14.07
2023-05-21T01:57:14.728Z,16.75
2023-05-21T02:01:16.490Z,14.35
2023-05-21T02:05:18.661Z,14.32
2023-05-21T02:09:20.896Z,13.40
2023-05-21T02:13:25.829Z,15.00
2023-05-21T02:17:31.266Z,12.85
2023-05-21T02:21:33.042Z,18.37
2023-05-21T02:25:34.990Z,13.30
2023-05-21T02:29:37.060Z,13.88
2023-05-21T02:33:41.307Z,17.27
2023-05-21T02:37:43.973Z,13.52
2023-05-21T02:41:47.529Z,13.45
2023-05-21T02:45:51.270Z,12.90
2023-05-21T02:49:53.990Z,11.27
2023-05-21T02:53:55.860Z,14.63
2023-05-21T02:57:57.591Z,11.90
2023-05-21T03:01:59.312Z,11.82
2023-05-21T03:06:01.559Z,10.05
2023-05-21T03:10:03.402Z,12.90
2023-05-21T03:14:06.285Z,13.95
2023-05-21T03:18:08.111Z,14.07
2023-05-21T03:22:11.255Z,12.20
2023-05-21T03:26:13.984Z,15.23
2023-05-21T03:30:15.861Z,10.88
2023-05-21T03:34:20.017Z,11.65
2023-05-21T03:38:21.716Z,15.60
2023-05-21T03:42:23.510Z,10.35
2023-05-21T03:46:26.213Z,11.60
2023-05-21T03:50:28.460Z,13.10
2023-05-21T03:54:30.205Z,13.50
2023-05-21T03:58:32.786Z,11.60
2023-05-21T04:02:34.771Z,14.30
2023-05-21T04:06:36.819Z,11.90
2023-05-21T04:10:38.532Z,11.20
2023-05-21T04:14:40.347Z,12.15
2023-05-21T04:18:44.852Z,11.43
2023-05-21T04:22:47.382Z,10.93
2023-05-21T04:26:49.863Z,12.73
2023-05-21T04:30:51.651Z,13.40
2023-05-21T04:34:53.407Z,9.35
2023-05-21T04:38:55.701Z,12.27
2023-05-21T04:42:58.076Z,13.07
2023-05-21T04:47:00.461Z,12.32
2023-05-21T04:51:05.924Z,13.70
2023-05-21T04:55:08.850Z,11.45
2023-05-21T04:59:10.744Z,12.18
2023-05-21T05:03:13.298Z,13.27
2023-05-21T05:07:15.517Z,13.18
2023-05-21T05:11:17.316Z,11.73
2023-05-21T05:15:19.124Z,13.80
2023-05-21T05:19:20.985Z,12.25
2023-05-21T05:23:22.731Z,10.82
2023-05-21T05:27:24.416Z,11.48
2023-05-21T05:31:26.201Z,11.18
2023-05-21T05:35:27.965Z,11.60
2023-05-21T05:39:29.851Z,11.00
2023-05-21T05:43:31.809Z,11.15
2023-05-21T05:47:33.633Z,11.40
2023-05-21T05:51:36.051Z,9.18
2023-05-21T05:55:38.248Z,11.73
2023-05-21T05:59:40.266Z,10.32
2023-05-21T06:03:42.113Z,11.63
2023-05-21T06:07:43.963Z,13.25
2023-05-21T06:11:45.706Z,11.30
2023-05-21T06:15:47.448Z,10.13
2023-05-21T06:19:49.230Z,12.75
2023-05-21T06:23:50.982Z,10.07
2023-05-21T06:27:52.734Z,12.65
2023-05-21T06:31:54.424Z,10.50
2023-05-21T06:35:56.251Z,13.00
2023-05-21T06:39:57.969Z,10.30
2023-05-21T06:43:59.830Z,10.25
2023-05-21T06:48:01.593Z,12.80
2023-05-21T06:52:03.381Z,10.80
2023-05-21T06:56:05.522Z,14.65
2023-05-21T07:00:09.359Z,11.65
2023-05-21T07:04:11.183Z,10.88
2023-05-21T07:08:13.006Z,10.63
2023-05-21T07:12:14.725Z,10.48
2023-05-21T07:16:17.749Z,11.80
2023-05-21T07:20:19.621Z,13.45
2023-05-21T07:24:21.352Z,12.73
2023-05-21T07:28:23.179Z,10.98
2023-05-21T07:32:26.684Z,11.20
2023-05-21T07:36:29.516Z,20.98
2023-05-21T07:40:31.228Z,12.25
2023-05-21T07:44:33.003Z,11.70
2023-05-21T07:48:35.648Z,14.57
2023-05-21T07:52:37.676Z,13.35
2023-05-21T07:56:39.448Z,14.90
2023-05-21T08:00:47.263Z,15.63
2023-05-21T08:04:49.122Z,12.80
2023-05-21T08:08:50.893Z,12.93
2023-05-21T08:12:52.611Z,13.75
2023-05-21T08:16:54.687Z,13.38
2023-05-21T08:20:56.645Z,13.27
2023-05-21T08:24:58.402Z,14.87
2023-05-21T08:29:00.167Z,14.87
2023-05-21T08:33:02.386Z,16.00
2023-05-21T08:37:04.483Z,14.43
2023-05-21T08:41:07.728Z,12.07
2023-05-21T08:45:13.086Z,13.02
2023-05-21T08:49:18.594Z,13.10
2023-05-21T08:53:28.280Z,12.57
2023-05-21T08:57:31.847Z,15.48
2023-05-21T09:01:34.510Z,16.37
2023-05-21T09:05:42.911Z,12.80
2023-05-21T09:10:12.253Z,14.27
2023-05-21T09:14:15.515Z,13.07
2023-05-21T09:18:17.414Z,16.62
2023-05-21T09:22:23.506Z,14.32
2023-05-21T09:26:26.504Z,12.60
2023-05-21T09:30:30.184Z,15.90
2023-05-21T09:34:36.656Z,13.18
2023-05-21T09:38:38.601Z,13.80
2023-05-21T09:42:41.419Z,13.70
2023-05-21T09:46:43.228Z,17.00
2023-05-21T09:50:45.799Z,14.45
2023-05-21T09:54:47.527Z,13.18
2023-05-21T09:58:55.067Z,13.88
2023-05-21T10:03:00.845Z,14.10
2023-05-21T10:07:02.711Z,15.15
2023-05-21T10:11:07.242Z,14.32
2023-05-21T10:15:11.397Z,13.85
2023-05-21T10:19:15.608Z,15.80
2023-05-21T10:23:18.648Z,12.95
2023-05-21T10:27:22.570Z,14.95
2023-05-21T10:31:26.562Z,15.48
2023-05-21T10:35:29.633Z,17.27
2023-05-21T10:39:33.622Z,17.27
2023-05-21T10:44:14.900Z,21.15
2023-05-21T10:48:43.573Z,18.52
2023-05-21T10:53:12.933Z,16.23
2023-05-21T10:57:14.674Z,15.65
2023-05-21T11:01:19.276Z,16.00
2023-05-21T11:05:51.551Z,15.40
2023-05-21T11:09:53.337Z,17.17
2023-05-21T11:13:55.157Z,15.73
2023-05-21T11:17:57.090Z,17.12
2023-05-21T11:21:58.982Z,18.83
2023-05-21T11:26:03.518Z,15.68
2023-05-21T11:30:09.100Z,15.20
2023-05-21T11:34:14.873Z,16.62
2023-05-21T11:38:18.039Z,15.57
2023-05-21T11:42:39.260Z,17.23
2023-05-21T11:46:41.220Z,12.25
2023-05-21T11:50:43.084Z,14.57
2023-05-21T11:54:48.321Z,14.48
2023-05-21T11:58:50.050Z,15.77
2023-05-21T12:02:52.851Z,16.90
2023-05-21T12:06:58.332Z,17.30
2023-05-21T12:11:01.690Z,16.30
2023-05-21T12:15:04.195Z,15.15
2023-05-21T12:19:06.723Z,18.33
2023-05-21T12:23:08.538Z,18.50
2023-05-21T12:27:13.161Z,15.85
2023-05-21T12:31:16.136Z,13.73
2023-05-21T12:35:22.744Z,16.45
2023-05-21T12:39:24.901Z,13.18
2023-05-21T12:43:32.075Z,14.93
2023-05-21T12:47:34.505Z,12.57
2023-05-21T12:51:40.044Z,16.42
2023-05-21T12:55:41.778Z,14.57
2023-05-21T12:59:52.262Z,15.00
2023-05-21T13:03:54.031Z,17.37
2023-05-21T13:07:55.804Z,16.95
2023-05-21T13:11:57.557Z,12.70
2023-05-21T13:16:01.604Z,16.00
2023-05-21T13:20:18.209Z,18.25
2023-05-21T13:24:20.001Z,14.15
2023-05-21T13:28:23.562Z,13.82
2023-05-21T13:32:25.517Z,18.87
2023-05-21T13:36:27.327Z,14.75
2023-05-21T13:40:29.150Z,19.42
2023-05-21T13:44:33.257Z,17.08
2023-05-21T13:48:35.276Z,18.65
2023-05-21T13:52:38.122Z,16.15
2023-05-21T13:56:39.967Z,17.08
2023-05-21T14:00:42.989Z,14.75
2023-05-21T14:04:45.289Z,14.38
2023-05-21T14:08:47.088Z,16.25
2023-05-21T14:12:48.876Z,17.00
2023-05-21T14:16:51.499Z,13.55
2023-05-21T14:20:53.804Z,15.32
2023-05-21T14:24:56.081Z,14.02
2023-05-21T14:28:57.996Z,14.13
2023-05-21T14:32:59.831Z,14.02
2023-05-21T14:37:01.608Z,13.45
2023-05-21T14:41:03.420Z,15.93
2023-05-21T14:45:18.012Z,12.30
2023-05-21T14:49:20.774Z,12.27
2023-05-21T14:53:22.609Z,13.65
2023-05-21T14:57:24.353Z,11.02
2023-05-21T15:01:26.166Z,14.07
2023-05-21T15:05:29.373Z,13.25
2023-05-21T15:09:31.130Z,15.35
2023-05-21T15:13:33.033Z,13.85
2023-05-21T15:17:35.843Z,14.30
2023-05-21T15:21:38.483Z,14.98
2023-05-21T15:25:40.309Z,15.60
2023-05-21T15:29:42.071Z,13.77
2023-05-21T15:33:43.864Z,16.17
2023-05-21T15:37:46.074Z,14.18
2023-05-21T15:41:47.902Z,15.40
2023-05-21T15:45:49.624Z,15.10
2023-05-21T15:49:51.623Z,12.75
2023-05-21T15:53:53.516Z,13.00
2023-05-21T15:57:55.526Z,15.65
2023-05-21T16:01:57.589Z,14.50
2023-05-21T16:05:59.695Z,17.10
2023-05-21T16:10:01.576Z,14.27
2023-05-21T16:14:03.302Z,15.05
2023-05-21T16:18:05.148Z,15.90
2023-05-21T16:26:09.963Z,13.88
2023-05-21T16:30:12.152Z,15.80
2023-05-21T16:34:13.897Z,13.93
2023-05-21T16:38:16.169Z,13.23
2023-05-21T16:42:17.925Z,16.45
2023-05-21T16:46:20.009Z,13.77
2023-05-21T16:50:21.879Z,15.52
2023-05-21T16:54:23.663Z,14.38
2023-05-21T16:58:25.556Z,13.00
2023-05-21T17:02:27.454Z,12.95
2023-05-21T17:06:29.218Z,14.32
2023-05-21T17:10:33.090Z,14.87
2023-05-21T17:14:36.244Z,13.62
2023-05-21T17:18:39.192Z,12.30
2023-05-21T17:22:41.021Z,16.20
2023-05-21T17:26:42.902Z,13.25
2023-05-21T17:30:45.593Z,13.27
2023-05-21T17:34:48.135Z,13.07
2023-05-21T17:38:50.728Z,33.70
2023-05-21T17:42:52.790Z,14.93
2023-05-21T17:46:56.401Z,15.60
2023-05-21T17:50:58.510Z,13.68
2023-05-21T17:55:01.159Z,13.60
2023-05-21T17:59:02.893Z,13.02
2023-05-21T18:03:04.770Z,15.02
2023-05-21T18:07:07.168Z,16.12
2023-05-21T18:11:08.907Z,13.62
2023-05-21T18:15:10.828Z,16.15
2023-05-21T18:19:13.013Z,14.43
2023-05-21T18:23:14.853Z,14.02
2023-05-21T18:27:16.632Z,14.35
2023-05-21T18:31:19.058Z,15.05
2023-05-21T18:35:20.882Z,13.35
2023-05-21T18:39:24.620Z,13.70
2023-05-21T18:43:26.493Z,13.95
2023-05-21T18:47:28.277Z,14.02
2023-05-21T18:51:30.065Z,16.17
2023-05-21T18:55:31.974Z,15.18
2023-05-21T18:59:33.791Z,16.75
2023-05-21T19:03:35.608Z,17.60
2023-05-21T19:07:37.378Z,15.43
2023-05-21T19:11:39.266Z,15.57
2023-05-21T19:15:41.213Z,17.65
2023-05-21T19:19:42.996Z,15.85
2023-05-21T19:23:52.487Z,16.52
2023-05-21T19:27:56.332Z,15.95
2023-05-21T19:31:59.057Z,18.15
2023-05-21T19:36:00.907Z,15.60
2023-05-21T19:40:02.702Z,14.93
2023-05-21T19:44:04.454Z,16.00
2023-05-21T19:48:06.809Z,17.05
2023-05-21T19:52:10.267Z,20.88
2023-05-21T19:56:12.020Z,19.92
2023-05-21T20:00:14.461Z,21.10
2023-05-21T20:04:16.335Z,21.50
2023-05-21T20:08:18.166Z,22.20
2023-05-21T20:12:19.899Z,28.50
2023-05-21T20:16:23.200Z,29.67
2023-05-21T20:20:26.647Z,31.77
2023-05-21T20:24:28.451Z,33.05
2023-05-21T20:28:30.291Z,32.47
2023-05-21T20:32:32.075Z,34.10
2023-05-21T20:36:35.108Z,36.50
2023-05-21T20:40:37.090Z,34.22
2023-05-21T20:44:39.517Z,37.83
2023-05-21T20:48:41.736Z,32.90
2023-05-21T20:52:46.249Z,35.13
2023-05-21T20:56:51.030Z,38.30
2023-05-21T21:00:55.060Z,34.35
2023-05-21T21:04:57.823Z,41.70
2023-05-21T21:08:59.565Z,41.42
2023-05-21T21:13:01.687Z,40.88
2023-05-21T21:17:03.483Z,44.95
2023-05-21T21:21:06.163Z,42.58
2023-05-21T21:25:08.379Z,45.90
2023-05-21T21:29:10.273Z,43.78
2023-05-21T21:33:14.100Z,50.12
2023-05-21T21:37:16.476Z,51.67
2023-05-21T21:41:20.179Z,51.53
2023-05-21T21:45:22.069Z,56.03
2023-05-21T21:49:23.760Z,53.35
2023-05-21T21:53:25.540Z,46.03
2023-05-21T21:57:29.342Z,47.03
2023-05-21T22:01:31.242Z,41.53
2023-05-21T22:05:33.901Z,44.92
2023-05-21T22:09:35.739Z,41.75
2023-05-21T22:13:37.664Z,37.60
2023-05-21T22:17:40.097Z,40.72
2023-05-21T22:21:42.153Z,41.40
2023-05-21T22:25:43.939Z,42.45
2023-05-21T22:29:45.634Z,44.92
2023-05-21T22:33:47.373Z,48.45
2023-05-21T22:37:49.131Z,47.95
2023-05-21T22:41:50.899Z,47.30
2023-05-21T22:45:52.728Z,43.50
2023-05-21T22:49:54.489Z,45.75
2023-05-21T22:53:56.220Z,42.03
2023-05-21T22:57:57.950Z,46.30
2023-05-21T23:01:59.952Z,54.38
2023-05-21T23:06:01.747Z,55.05
2023-05-21T23:10:03.946Z,54.28
2023-05-21T23:14:05.679Z,53.50
2023-05-21T23:18:08.352Z,52.20
2023-05-21T23:22:10.536Z,47.17
2023-05-21T23:26:12.287Z,48.33
2023-05-21T23:30:14.180Z,43.63
2023-05-21T23:34:16.045Z,42.40
2023-05-21T23:38:17.805Z,41.72
2023-05-21T23:42:19.718Z,35.22
2023-05-21T23:46:21.500Z,36.22
2023-05-21T23:50:24.699Z,33.47
2023-05-21T23:54:26.895Z,32.67
2023-05-21T23:58:28.619Z,32.00
